createdAt,value
2019-04-26T00:00:46.440Z,0.00
2019-04-26T00:01:46.411Z,0.00
2019-04-26T00:02:46.510Z,0.00
2019-04-26T00:03:46.359Z,0.00
2019-04-26T00:04:46.327Z,0.00
2019-04-26T00:05:46.311Z,0.00
2019-04-26T00:06:46.276Z,0.00
2019-04-26T00:07:46.253Z,0.00
2019-04-26T00:08:46.314Z,0.00
2019-04-26T00:09:46.200Z,0.00
2019-04-26T00:10:46.190Z,0.00
2019-04-26T00:11:46.170Z,0.00
2019-04-26T00:12:46.120Z,0.00
2019-04-26T00:13:46.120Z,0.00
2019-04-26T00:14:46.067Z,0.00
2019-04-26T00:15:46.045Z,0.00
2019-04-26T00:16:46.014Z,0.00
2019-04-26T00:17:45.992Z,0.00
2019-04-26T00:18:46.553Z,0.00
2019-04-26T00:19:45.936Z,0.00
2019-04-26T00:20:45.916Z,0.00
2019-04-26T00:21:45.883Z,0.00
2019-04-26T00:22:45.878Z,0.00
2019-04-26T00:23:45.854Z,0.00
2019-04-26T00:24:45.804Z,0.00
2019-04-26T00:25:45.779Z,0.00
2019-04-26T00:26:45.752Z,0.00
2019-04-26T00:27:45.723Z,0.00
2019-04-26T00:28:46.087Z,0.00
2019-04-26T00:29:45.680Z,0.00
2019-04-26T00:30:45.644Z,0.00
2019-04-26T00:31:45.670Z,0.00
2019-04-26T00:32:45.588Z,0.00
2019-04-26T00:33:45.566Z,0.00
2019-04-26T00:34:45.562Z,0.00
2019-04-26T00:35:47.916Z,0.00
2019-04-26T00:36:45.485Z,0.00
2019-04-26T00:37:45.459Z,0.00
2019-04-26T00:38:45.434Z,0.00
2019-04-26T00:39:45.431Z,0.00
2019-04-26T00:40:45.380Z,0.00
2019-04-26T00:41:45.353Z,0.00
2019-04-26T00:42:45.332Z,0.00
2019-04-26T00:43:45.297Z,0.00
2019-04-26T00:44:45.306Z,0.00
2019-04-26T00:45:45.247Z,0.00
2019-04-26T00:46:45.218Z,0.00
2019-04-26T00:47:45.193Z,0.00
2019-04-26T00:48:45.166Z,0.00
2019-04-26T00:49:45.175Z,0.00
2019-04-26T00:50:45.120Z,0.00
2019-04-26T00:51:45.093Z,0.00
2019-04-26T00:52:45.131Z,0.00
2019-04-26T00:53:45.040Z,0.00
2019-04-26T00:54:45.044Z,0.00
2019-04-26T00:55:44.979Z,0.00
2019-04-26T00:56:44.969Z,0.00
2019-04-26T00:57:44.932Z,0.00
2019-04-26T00:58:44.897Z,0.00
2019-04-26T00:59:44.909Z,0.00
2019-04-26T01:00:44.845Z,0.00
2019-04-26T01:01:44.825Z,0.00
2019-04-26T01:02:44.799Z,0.00
2019-04-26T01:03:44.768Z,0.00
2019-04-26T01:04:44.769Z,0.00
2019-04-26T01:05:44.720Z,0.00
2019-04-26T01:06:44.702Z,0.00
2019-04-26T01:07:44.661Z,0.00
2019-04-26T01:08:44.679Z,0.00
2019-04-26T01:09:44.609Z,0.00
2019-04-26T01:10:44.602Z,0.00
2019-04-26T01:11:44.563Z,0.00
2019-04-26T01:12:44.532Z,0.00
2019-04-26T01:13:44.500Z,0.00
2019-04-26T01:14:44.481Z,0.00
2019-04-26T01:15:44.475Z,0.00
2019-04-26T01:16:44.419Z,0.00
2019-04-26T01:17:44.406Z,0.00
2019-04-26T01:18:44.368Z,0.00
2019-04-26T01:19:44.346Z,0.00
2019-04-26T01:20:44.335Z,0.00
2019-04-26T01:21:44.288Z,0.00
2019-04-26T01:22:44.257Z,0.00
2019-04-26T01:23:44.237Z,0.00
2019-04-26T01:24:44.209Z,0.00
2019-04-26T01:25:44.269Z,0.00
2019-04-26T01:26:44.152Z,0.00
2019-04-26T01:27:44.138Z,0.00
2019-04-26T01:28:44.098Z,0.00
2019-04-26T01:29:44.076Z,0.00
2019-04-26T01:30:44.084Z,0.00
2019-04-26T01:31:44.021Z,0.00
2019-04-26T01:32:43.996Z,0.00
2019-04-26T01:33:43.964Z,0.00
2019-04-26T01:34:43.944Z,0.00
2019-04-26T01:35:43.936Z,0.00
2019-04-26T01:36:43.886Z,0.00
2019-04-26T01:37:43.858Z,0.00
2019-04-26T01:38:43.847Z,0.00
2019-04-26T01:39:43.819Z,0.00
2019-04-26T01:40:43.800Z,0.00
2019-04-26T01:41:43.753Z,0.00
2019-04-26T01:42:43.744Z,0.00
2019-04-26T01:43:43.735Z,0.00
2019-04-26T01:44:43.670Z,0.00
2019-04-26T01:45:43.671Z,0.00
2019-04-26T01:46:43.614Z,0.00
2019-04-26T01:47:43.588Z,0.00
2019-04-26T01:48:43.566Z,0.00
2019-04-26T01:49:43.543Z,0.00
2019-04-26T01:50:43.535Z,0.00
2019-04-26T01:51:43.482Z,0.00
2019-04-26T01:52:43.455Z,0.00
2019-04-26T01:53:43.438Z,0.00
2019-04-26T01:54:43.401Z,0.00
2019-04-26T01:55:43.407Z,0.00
2019-04-26T01:56:43.371Z,0.00
2019-04-26T01:57:43.352Z,0.00
2019-04-26T01:58:43.292Z,0.00
2019-04-26T01:59:43.274Z,0.00
2019-04-26T02:00:43.241Z,0.00
2019-04-26T02:01:43.241Z,0.00
2019-04-26T02:02:43.187Z,0.00
2019-04-26T02:03:43.161Z,0.00
2019-04-26T02:04:43.138Z,0.00
2019-04-26T02:05:43.144Z,0.00
2019-04-26T02:06:43.100Z,0.00
2019-04-26T02:07:43.050Z,0.00
2019-04-26T02:08:43.030Z,0.00
2019-04-26T02:09:42.999Z,0.00
2019-04-26T02:10:42.969Z,0.00
2019-04-26T02:11:42.966Z,0.00
2019-04-26T02:12:42.917Z,0.00
2019-04-26T02:13:42.894Z,0.00
2019-04-26T02:14:42.860Z,0.00
2019-04-26T02:15:43.456Z,0.00
2019-04-26T02:16:42.834Z,0.00
2019-04-26T02:17:42.788Z,0.00
2019-04-26T02:18:42.754Z,0.00
2019-04-26T02:19:42.741Z,0.00
2019-04-26T02:20:42.706Z,0.00
2019-04-26T02:21:42.695Z,0.00
2019-04-26T02:22:42.647Z,0.00
2019-04-26T02:23:42.615Z,0.00
2019-04-26T02:24:42.591Z,0.00
2019-04-26T02:25:42.564Z,0.00
2019-04-26T02:26:42.582Z,0.00
2019-04-26T02:27:42.513Z,0.00
2019-04-26T02:28:42.484Z,0.00
2019-04-26T02:29:42.464Z,0.00
2019-04-26T02:30:42.429Z,0.00
2019-04-26T02:31:42.423Z,0.00
2019-04-26T02:32:42.375Z,0.00
2019-04-26T02:33:42.346Z,0.00
2019-04-26T02:34:42.322Z,0.00
2019-04-26T02:35:42.298Z,0.00
2019-04-26T02:36:57.273Z,0.00
2019-04-26T02:37:42.264Z,0.00
2019-04-26T02:38:42.215Z,0.00
2019-04-26T02:39:42.185Z,0.00
2019-04-26T02:40:42.157Z,0.00
2019-04-26T02:41:42.149Z,0.00
2019-04-26T02:42:42.149Z,0.00
2019-04-26T02:43:42.077Z,0.00
2019-04-26T02:44:42.050Z,0.00
2019-04-26T02:45:42.031Z,0.00
2019-04-26T02:46:42.005Z,0.00
2019-04-26T02:47:41.992Z,0.00
2019-04-26T02:48:41.949Z,0.00
2019-04-26T02:49:41.918Z,0.00
2019-04-26T02:50:41.890Z,0.00
2019-04-26T02:51:41.876Z,0.00
2019-04-26T02:52:41.855Z,0.00
2019-04-26T02:53:41.810Z,0.00
2019-04-26T02:54:41.787Z,0.00
2019-04-26T02:55:42.688Z,0.00
2019-04-26T02:56:41.732Z,0.00
2019-04-26T02:57:41.720Z,0.00
2019-04-26T02:58:41.677Z,0.00
2019-04-26T02:59:41.646Z,0.00
2019-04-26T03:00:41.625Z,0.00
2019-04-26T03:01:41.591Z,0.00
2019-04-26T03:02:41.635Z,0.00
2019-04-26T03:03:41.537Z,0.00
2019-04-26T03:04:41.515Z,0.00
2019-04-26T03:05:41.487Z,0.00
2019-04-26T03:06:42.857Z,0.00
2019-04-26T03:07:42.801Z,0.00
2019-04-26T03:08:42.649Z,0.00
2019-04-26T03:09:43.024Z,4.00
2019-04-26T03:10:41.345Z,4.00
2019-04-26T03:11:41.332Z,4.00
2019-04-26T03:12:41.368Z,0.00
2019-04-26T03:13:41.264Z,4.00
2019-04-26T03:14:41.960Z,4.00
2019-04-26T03:15:42.564Z,4.00
2019-04-26T03:16:42.862Z,4.00
2019-04-26T03:17:41.153Z,4.00
2019-04-26T03:18:42.868Z,8.00
2019-04-26T03:19:41.100Z,8.00
2019-04-26T03:20:42.212Z,8.00
2019-04-26T03:21:41.068Z,8.00
2019-04-26T03:22:42.557Z,8.00
2019-04-26T03:23:53.288Z,12.00
2019-04-26T03:24:42.460Z,16.00
2019-04-26T03:25:42.209Z,16.00
2019-04-26T03:26:41.602Z,20.00
2019-04-26T03:27:41.877Z,24.00
2019-04-26T03:28:43.097Z,28.00
2019-04-26T03:29:41.926Z,32.00
2019-04-26T03:30:49.086Z,36.00
2019-04-26T03:31:51.925Z,40.00
2019-04-26T03:32:50.489Z,48.00
2019-04-26T03:33:50.015Z,56.00
2019-04-26T03:34:52.618Z,68.00
2019-04-26T03:35:54.912Z,76.00
2019-04-26T03:36:42.402Z,84.00
2019-04-26T03:37:42.619Z,96.00
2019-04-26T03:38:41.923Z,112.00
2019-04-26T03:39:42.435Z,124.00
2019-04-26T03:40:42.446Z,140.00
2019-04-26T03:41:41.099Z,156.00
2019-04-26T03:42:42.212Z,168.00
2019-04-26T03:43:41.234Z,184.00
2019-04-26T03:44:42.059Z,196.00
2019-04-26T03:45:42.432Z,216.00
2019-04-26T03:46:41.828Z,232.00
2019-04-26T03:47:42.780Z,248.00
2019-04-26T03:48:41.584Z,272.00
2019-04-26T03:49:41.999Z,292.00
2019-04-26T03:50:41.033Z,312.00
2019-04-26T03:51:41.150Z,340.00
2019-04-26T03:52:41.691Z,376.00
2019-04-26T03:53:41.901Z,416.00
2019-04-26T03:54:41.056Z,460.00
2019-04-26T03:55:41.559Z,504.00
2019-04-26T03:56:41.706Z,536.00
2019-04-26T03:57:41.839Z,564.00
2019-04-26T03:58:40.503Z,600.00
2019-04-26T03:59:40.732Z,640.00
2019-04-26T04:00:41.337Z,684.00
2019-04-26T04:01:41.258Z,720.00
2019-04-26T04:02:41.381Z,756.00
2019-04-26T04:03:43.087Z,784.00
2019-04-26T04:04:41.581Z,820.00
2019-04-26T04:05:41.540Z,864.00
2019-04-26T04:06:56.752Z,908.00
2019-04-26T04:07:45.286Z,960.00
2019-04-26T04:08:40.855Z,1020.00
2019-04-26T04:09:41.051Z,1092.00
2019-04-26T04:10:41.483Z,1168.00
2019-04-26T04:11:40.815Z,1236.00
2019-04-26T04:12:41.471Z,1308.00
2019-04-26T04:13:43.240Z,1388.00
2019-04-26T04:14:40.630Z,1472.00
2019-04-26T04:15:40.612Z,1560.00
2019-04-26T04:16:42.453Z,1636.00
2019-04-26T04:17:41.927Z,1692.00
2019-04-26T04:18:40.441Z,1764.00
2019-04-26T04:19:40.928Z,1840.00
2019-04-26T04:20:40.861Z,1892.00
2019-04-26T04:21:40.723Z,1924.00
2019-04-26T04:22:41.296Z,1976.00
2019-04-26T04:23:39.849Z,2044.00
2019-04-26T04:24:41.330Z,2108.00
2019-04-26T04:25:41.171Z,2160.00
2019-04-26T04:26:40.924Z,2196.00
2019-04-26T04:27:40.137Z,2240.00
2019-04-26T04:28:40.463Z,2308.00
2019-04-26T04:29:46.239Z,2392.00
2019-04-26T04:30:40.644Z,2476.00
2019-04-26T04:31:40.484Z,2564.00
2019-04-26T04:32:40.280Z,2696.00
2019-04-26T04:33:40.737Z,2792.00
2019-04-26T04:34:41.491Z,2864.00
2019-04-26T04:35:40.493Z,2956.00
2019-04-26T04:36:41.494Z,3012.00
2019-04-26T04:37:56.482Z,3068.00
2019-04-26T04:38:40.903Z,3184.00
2019-04-26T04:39:40.805Z,3308.00
2019-04-26T04:40:38.909Z,3324.00
2019-04-26T04:41:38.857Z,3256.00
2019-04-26T04:42:38.893Z,3264.00
2019-04-26T04:43:41.939Z,3276.00
2019-04-26T04:44:38.779Z,3260.00
2019-04-26T04:45:38.921Z,3280.00
2019-04-26T04:46:38.734Z,3340.00
2019-04-26T04:47:38.707Z,3488.00
2019-04-26T04:48:38.675Z,3668.00
2019-04-26T04:49:38.650Z,3888.00
2019-04-26T04:50:38.653Z,4136.00
2019-04-26T04:51:38.596Z,4360.00
2019-04-26T04:52:38.572Z,4548.00
2019-04-26T04:53:38.544Z,4588.00
2019-04-26T04:54:38.513Z,4484.00
2019-04-26T04:55:38.512Z,4356.00
2019-04-26T04:56:38.463Z,4192.00
2019-04-26T04:57:38.442Z,4084.00
2019-04-26T04:58:38.405Z,3936.00
2019-04-26T04:59:38.381Z,3868.00
2019-04-26T05:00:38.392Z,3800.00
2019-04-26T05:01:38.337Z,3748.00
2019-04-26T05:02:38.381Z,3780.00
2019-04-26T05:03:38.281Z,3856.00
2019-04-26T05:04:38.255Z,3836.00
2019-04-26T05:05:38.248Z,3792.00
2019-04-26T05:06:38.201Z,3724.00
2019-04-26T05:07:38.213Z,3628.00
2019-04-26T05:08:38.147Z,3520.00
2019-04-26T05:09:38.127Z,3496.00
2019-04-26T05:10:38.117Z,3576.00
2019-04-26T05:11:38.071Z,3704.00
2019-04-26T05:12:38.051Z,3864.00
2019-04-26T05:13:38.020Z,4112.00
2019-04-26T05:14:37.994Z,4268.00
2019-04-26T05:15:37.990Z,4448.00
2019-04-26T05:16:37.944Z,4696.00
2019-04-26T05:17:37.913Z,4920.00
2019-04-26T05:18:37.884Z,5144.00
2019-04-26T05:19:37.868Z,5428.00
2019-04-26T05:20:37.877Z,5728.00
2019-04-26T05:21:37.810Z,6048.00
2019-04-26T05:22:37.793Z,6300.00
2019-04-26T05:23:37.759Z,6420.00
2019-04-26T05:24:37.734Z,6572.00
2019-04-26T05:25:40.192Z,6676.00
2019-04-26T05:26:37.702Z,6856.00
2019-04-26T05:27:37.663Z,6996.00
2019-04-26T05:28:37.635Z,7072.00
2019-04-26T05:29:37.607Z,7028.00
2019-04-26T05:30:37.584Z,6896.00
2019-04-26T05:31:37.575Z,6668.00
2019-04-26T05:32:37.528Z,6468.00
2019-04-26T05:33:37.512Z,6304.00
2019-04-26T05:34:37.478Z,6100.00
2019-04-26T05:35:37.456Z,6028.00
2019-04-26T05:36:37.450Z,5944.00
2019-04-26T05:37:37.405Z,5968.00
2019-04-26T05:38:37.384Z,6104.00
2019-04-26T05:39:37.361Z,6184.00
2019-04-26T05:40:37.349Z,6192.00
2019-04-26T05:41:37.325Z,6212.00
2019-04-26T05:42:37.276Z,6132.00
2019-04-26T05:43:37.257Z,6020.00
2019-04-26T05:44:37.230Z,5944.00
2019-04-26T05:45:37.204Z,5888.00
2019-04-26T05:46:37.205Z,5864.00
2019-04-26T05:47:37.154Z,5896.00
2019-04-26T05:48:37.132Z,6016.00
2019-04-26T05:49:37.177Z,6324.00
2019-04-26T05:50:37.081Z,6740.00
2019-04-26T05:51:37.079Z,7368.00
2019-04-26T05:52:37.032Z,8088.00
2019-04-26T05:53:37.006Z,8724.00
2019-04-26T05:54:36.978Z,9240.00
2019-04-26T05:55:36.958Z,9636.00
2019-04-26T05:56:36.957Z,9880.00
2019-04-26T05:57:36.908Z,10004.00
2019-04-26T05:58:36.884Z,10132.00
2019-04-26T05:59:36.926Z,10292.00
2019-04-26T06:00:36.840Z,10404.00
2019-04-26T06:01:36.845Z,10576.00
2019-04-26T06:02:36.800Z,10328.00
2019-04-26T06:03:36.762Z,10280.00
2019-04-26T06:04:36.742Z,10212.00
2019-04-26T06:05:36.721Z,10184.00
2019-04-26T06:06:38.632Z,10304.00
2019-04-26T06:07:39.627Z,10564.00
2019-04-26T06:09:14.258Z,10584.00
2019-04-26T06:09:38.625Z,10532.00
2019-04-26T06:10:36.612Z,10360.00
2019-04-26T06:11:36.591Z,10324.00
2019-04-26T06:12:36.584Z,10348.00
2019-04-26T06:13:36.534Z,10144.00
2019-04-26T06:14:36.509Z,10016.00
2019-04-26T06:15:36.483Z,9944.00
2019-04-26T06:16:36.464Z,9840.00
2019-04-26T06:17:36.521Z,9504.00
2019-04-26T06:18:36.419Z,9116.00
2019-04-26T06:19:36.399Z,8720.00
2019-04-26T06:20:36.374Z,8336.00
2019-04-26T06:21:36.356Z,7936.00
2019-04-26T06:22:36.351Z,7536.00
2019-04-26T06:23:36.305Z,7324.00
2019-04-26T06:24:36.288Z,7044.00
2019-04-26T06:25:38.020Z,6712.00
2019-04-26T06:26:36.247Z,6412.00
2019-04-26T06:27:36.238Z,6200.00
2019-04-26T06:28:36.191Z,6164.00
2019-04-26T06:29:36.169Z,6108.00
2019-04-26T06:30:45.220Z,6048.00
2019-04-26T06:31:36.128Z,6100.00
2019-04-26T06:32:36.202Z,6140.00
2019-04-26T06:33:36.081Z,6316.00
2019-04-26T06:34:36.052Z,6516.00
2019-04-26T06:35:36.031Z,6808.00
2019-04-26T06:36:36.017Z,7076.00
2019-04-26T06:37:36.010Z,7328.00
2019-04-26T06:38:43.731Z,7340.00
2019-04-26T06:39:35.947Z,7172.00
2019-04-26T06:40:41.831Z,7348.00
2019-04-26T06:41:35.901Z,7136.00
2019-04-26T06:42:35.936Z,7208.00
2019-04-26T06:43:35.849Z,7540.00
2019-04-26T06:44:35.825Z,8260.00
2019-04-26T06:45:35.806Z,9044.00
2019-04-26T06:46:35.779Z,9580.00
2019-04-26T06:47:35.762Z,10024.00
2019-04-26T06:48:35.758Z,10352.00
2019-04-26T06:49:35.715Z,10084.00
2019-04-26T06:50:35.690Z,10104.00
2019-04-26T06:51:35.667Z,10052.00
2019-04-26T06:52:35.643Z,10064.00
2019-04-26T06:53:35.644Z,10236.00
2019-04-26T06:54:35.656Z,10072.00
2019-04-26T06:55:35.578Z,10216.00
2019-04-26T06:56:35.554Z,10496.00
2019-04-26T06:57:35.530Z,10496.00
2019-04-26T06:58:35.534Z,10304.00
2019-04-26T06:59:36.445Z,10080.00
2019-04-26T07:00:35.470Z,10372.00
2019-04-26T07:01:35.442Z,10944.00
2019-04-26T07:02:35.420Z,11400.00
2019-04-26T07:03:35.420Z,11448.00
2019-04-26T07:04:35.378Z,11300.00
2019-04-26T07:05:35.356Z,11116.00
2019-04-26T07:06:35.503Z,10988.00
2019-04-26T07:07:35.315Z,10872.00
2019-04-26T07:08:35.313Z,10664.00
2019-04-26T07:09:35.272Z,10708.00
2019-04-26T07:10:35.248Z,11104.00
2019-04-26T07:11:35.226Z,11876.00
2019-04-26T07:12:35.202Z,12188.00
2019-04-26T07:13:35.213Z,12592.00
2019-04-26T07:14:35.161Z,12644.00
2019-04-26T07:15:35.143Z,12768.00
2019-04-26T07:16:35.124Z,13120.00
2019-04-26T07:17:35.102Z,12932.00
2019-04-26T07:18:35.077Z,12664.00
2019-04-26T07:19:35.082Z,12744.00
2019-04-26T07:20:35.039Z,12880.00
2019-04-26T07:21:35.018Z,13256.00
2019-04-26T07:22:35.871Z,12696.00
2019-04-26T07:23:34.978Z,12388.00
2019-04-26T07:24:34.975Z,12012.00
2019-04-26T07:25:34.936Z,11880.00
2019-04-26T07:26:34.924Z,11976.00
2019-04-26T07:27:34.893Z,12324.00
2019-04-26T07:28:34.872Z,12684.00
2019-04-26T07:29:34.879Z,12872.00
2019-04-26T07:30:34.835Z,13256.00
2019-04-26T07:31:34.812Z,13588.00
2019-04-26T07:32:34.798Z,13624.00
2019-04-26T07:33:34.771Z,13316.00
2019-04-26T07:34:34.782Z,12872.00
2019-04-26T07:35:34.732Z,12372.00
2019-04-26T07:36:34.718Z,11944.00
2019-04-26T07:37:34.700Z,11524.00
2019-04-26T07:38:34.672Z,11232.00
2019-04-26T07:39:34.693Z,11088.00
2019-04-26T07:40:34.647Z,10836.00
2019-04-26T07:41:34.614Z,10548.00
2019-04-26T07:42:34.604Z,10364.00
2019-04-26T07:43:34.583Z,10164.00
2019-04-26T07:44:34.577Z,9996.00
2019-04-26T07:45:34.534Z,10020.00
2019-04-26T07:46:34.510Z,10292.00
2019-04-26T07:47:34.491Z,10780.00
2019-04-26T07:48:34.510Z,11092.00
2019-04-26T07:49:34.454Z,11368.00
2019-04-26T07:50:34.464Z,11636.00
2019-04-26T07:51:34.466Z,11840.00
2019-04-26T07:52:34.396Z,11720.00
2019-04-26T07:53:34.371Z,11880.00
2019-04-26T07:54:34.353Z,12268.00
2019-04-26T07:55:34.359Z,12896.00
2019-04-26T07:56:34.312Z,13460.00
2019-04-26T07:57:34.294Z,13948.00
2019-04-26T07:58:34.278Z,14260.00
2019-04-26T07:59:34.253Z,14444.00
2019-04-26T08:00:44.327Z,14668.00
2019-04-26T08:01:34.219Z,14804.00
2019-04-26T08:02:34.195Z,14676.00
2019-04-26T08:03:34.180Z,14528.00
2019-04-26T08:04:34.164Z,13960.00
2019-04-26T08:05:34.164Z,13600.00
2019-04-26T08:06:34.116Z,13396.00
2019-04-26T08:07:34.101Z,13260.00
2019-04-26T08:08:34.080Z,13692.00
2019-04-26T08:09:34.056Z,14308.00
2019-04-26T08:10:34.061Z,14716.00
2019-04-26T08:11:34.020Z,15016.00
2019-04-26T08:12:34.007Z,15292.00
2019-04-26T08:13:33.982Z,15608.00
2019-04-26T08:14:33.959Z,15828.00
2019-04-26T08:15:33.979Z,16192.00
2019-04-26T08:16:33.920Z,16500.00
2019-04-26T08:17:33.907Z,16960.00
2019-04-26T08:18:33.894Z,17184.00
2019-04-26T08:19:33.869Z,17376.00
2019-04-26T08:20:33.877Z,17056.00
2019-04-26T08:21:33.829Z,16252.00
2019-04-26T08:22:33.918Z,15468.00
2019-04-26T08:23:42.190Z,14728.00
2019-04-26T08:24:33.777Z,14560.00
2019-04-26T08:25:33.752Z,14884.00
2019-04-26T08:26:33.753Z,15064.00
2019-04-26T08:27:33.718Z,14968.00
2019-04-26T08:28:33.697Z,14416.00
2019-04-26T08:29:34.647Z,14056.00
2019-04-26T08:30:33.666Z,14204.00
2019-04-26T08:31:33.664Z,14568.00
2019-04-26T08:32:33.648Z,14980.00
2019-04-26T08:33:33.601Z,15116.00
2019-04-26T08:34:33.876Z,15384.00
2019-04-26T08:35:33.579Z,15632.00
2019-04-26T08:36:33.580Z,15584.00
2019-04-26T08:37:36.494Z,15440.00
2019-04-26T08:38:33.505Z,15004.00
2019-04-26T08:39:45.027Z,14584.00
2019-04-26T08:40:33.477Z,14268.00
2019-04-26T08:41:35.263Z,14048.00
2019-04-26T08:42:33.483Z,13604.00
2019-04-26T08:43:33.411Z,12956.00
2019-04-26T08:44:34.517Z,12548.00
2019-04-26T08:45:33.379Z,12332.00
2019-04-26T08:46:36.275Z,12380.00
2019-04-26T08:47:33.338Z,12672.00
2019-04-26T08:48:33.323Z,12864.00
2019-04-26T08:49:35.054Z,12752.00
2019-04-26T08:50:33.285Z,12584.00
2019-04-26T08:51:33.288Z,12044.00
2019-04-26T08:52:33.254Z,11504.00
2019-04-26T08:53:33.232Z,11076.00
2019-04-26T08:54:33.208Z,10632.00
2019-04-26T08:55:33.194Z,10232.00
2019-04-26T08:56:33.210Z,9956.00
2019-04-26T08:57:33.152Z,9816.00
2019-04-26T08:58:33.132Z,9592.00
2019-04-26T08:59:33.121Z,9320.00
2019-04-26T09:00:33.093Z,9096.00
2019-04-26T09:01:33.087Z,9012.00
2019-04-26T09:02:33.222Z,8856.00
2019-04-26T09:03:33.045Z,8732.00
2019-04-26T09:04:33.015Z,8772.00
2019-04-26T09:05:33.008Z,8848.00
2019-04-26T09:06:32.993Z,8992.00
2019-04-26T09:07:33.065Z,9072.00
2019-04-26T09:08:33.064Z,9096.00
2019-04-26T09:09:32.921Z,9120.00
2019-04-26T09:10:32.902Z,9108.00
2019-04-26T09:11:33.950Z,9068.00
2019-04-26T09:12:32.880Z,8856.00
2019-04-26T09:13:32.842Z,8680.00
2019-04-26T09:14:32.923Z,8644.00
2019-04-26T09:15:32.895Z,8584.00
2019-04-26T09:16:32.896Z,8552.00
2019-04-26T09:17:33.831Z,8612.00
2019-04-26T09:18:42.312Z,8912.00
2019-04-26T09:19:32.768Z,9612.00
2019-04-26T09:20:32.747Z,10428.00
2019-04-26T09:21:32.715Z,11244.00
2019-04-26T09:22:32.754Z,12104.00
2019-04-26T09:23:39.854Z,12904.00
2019-04-26T09:24:32.615Z,13628.00
2019-04-26T09:25:34.611Z,14016.00
2019-04-26T09:26:32.645Z,14524.00
2019-04-26T09:27:32.579Z,14880.00
2019-04-26T09:28:32.533Z,14836.00
2019-04-26T09:29:32.515Z,14696.00
2019-04-26T09:30:34.296Z,14608.00
2019-04-26T09:31:32.471Z,14732.00
2019-04-26T09:32:32.480Z,14992.00
2019-04-26T09:33:35.932Z,15776.00
2019-04-26T09:34:32.416Z,16672.00
2019-04-26T09:35:32.388Z,17472.00
2019-04-26T09:36:32.550Z,18272.00
2019-04-26T09:37:32.358Z,18784.00
2019-04-26T09:38:32.353Z,18912.00
2019-04-26T09:39:32.308Z,18944.00
2019-04-26T09:40:32.306Z,18848.00
2019-04-26T09:41:32.311Z,18976.00
2019-04-26T09:42:32.261Z,19360.00
2019-04-26T09:43:32.251Z,20128.00
2019-04-26T09:44:32.209Z,20512.00
2019-04-26T09:45:32.197Z,20960.00
2019-04-26T09:46:32.214Z,21248.00
2019-04-26T09:47:32.231Z,21248.00
2019-04-26T09:48:32.159Z,20992.00
2019-04-26T09:49:32.120Z,20480.00
2019-04-26T09:50:32.095Z,19360.00
2019-04-26T09:51:34.766Z,17952.00
2019-04-26T09:52:32.068Z,16372.00
2019-04-26T09:53:32.097Z,15260.00
2019-04-26T09:54:32.078Z,14340.00
2019-04-26T09:55:35.486Z,13728.00
2019-04-26T09:56:32.035Z,13440.00
2019-04-26T09:57:31.970Z,13244.00
2019-04-26T09:58:32.282Z,12804.00
2019-04-26T09:59:31.938Z,12540.00
2019-04-26T10:00:31.913Z,12464.00
2019-04-26T10:01:31.894Z,12256.00
2019-04-26T10:02:33.823Z,12072.00
2019-04-26T10:03:34.228Z,11912.00
2019-04-26T10:04:31.833Z,11832.00
2019-04-26T10:05:31.815Z,11616.00
2019-04-26T10:06:31.826Z,11464.00
2019-04-26T10:07:33.436Z,11296.00
2019-04-26T10:08:31.783Z,11104.00
2019-04-26T10:09:31.738Z,10784.00
2019-04-26T10:10:35.230Z,10592.00
2019-04-26T10:11:31.704Z,10340.00
2019-04-26T10:12:31.686Z,10060.00
2019-04-26T10:13:31.699Z,9816.00
2019-04-26T10:14:31.644Z,9512.00
2019-04-26T10:15:31.625Z,9068.00
2019-04-26T10:16:33.528Z,8688.00
2019-04-26T10:17:31.611Z,8444.00
2019-04-26T10:18:31.593Z,8236.00
2019-04-26T10:19:31.897Z,8076.00
2019-04-26T10:20:31.527Z,7796.00
2019-04-26T10:21:31.524Z,7580.00
2019-04-26T10:22:31.484Z,7452.00
2019-04-26T10:23:31.493Z,7348.00
2019-04-26T10:24:31.452Z,7268.00
2019-04-26T10:25:31.427Z,7144.00
2019-04-26T10:26:31.408Z,6968.00
2019-04-26T10:27:32.542Z,6952.00
2019-04-26T10:28:31.401Z,6876.00
2019-04-26T10:29:31.344Z,6728.00
2019-04-26T10:30:31.324Z,6732.00
2019-04-26T10:31:31.305Z,6828.00
2019-04-26T10:32:31.281Z,6884.00
2019-04-26T10:33:32.611Z,6868.00
2019-04-26T10:34:31.263Z,6912.00
2019-04-26T10:35:31.220Z,7108.00
2019-04-26T10:36:31.497Z,7180.00
2019-04-26T10:37:39.156Z,7168.00
2019-04-26T10:38:31.162Z,7180.00
2019-04-26T10:39:39.243Z,7204.00
2019-04-26T10:40:35.780Z,7304.00
2019-04-26T10:41:31.145Z,7400.00
2019-04-26T10:42:31.074Z,7404.00
2019-04-26T10:43:31.117Z,7348.00
2019-04-26T10:44:31.060Z,7284.00
2019-04-26T10:45:31.007Z,7208.00
2019-04-26T10:46:30.990Z,7216.00
2019-04-26T10:47:34.273Z,7156.00
2019-04-26T10:48:30.955Z,7136.00
2019-04-26T10:49:30.948Z,7072.00
2019-04-26T10:50:33.116Z,7060.00
2019-04-26T10:51:30.880Z,6976.00
2019-04-26T10:52:30.873Z,6948.00
2019-04-26T10:53:31.965Z,6972.00
2019-04-26T10:54:30.850Z,7008.00
2019-04-26T10:55:30.801Z,7016.00
2019-04-26T10:56:30.777Z,7020.00
2019-04-26T10:57:30.757Z,6908.00
2019-04-26T10:58:31.963Z,6816.00
2019-04-26T10:59:31.861Z,6736.00
2019-04-26T11:00:30.691Z,6884.00
2019-04-26T11:01:30.682Z,6972.00
2019-04-26T11:02:30.652Z,6968.00
2019-04-26T11:03:30.632Z,6996.00
2019-04-26T11:04:30.633Z,7272.00
2019-04-26T11:05:30.595Z,7616.00
2019-04-26T11:06:30.645Z,7916.00
2019-04-26T11:07:30.608Z,8180.00
2019-04-26T11:08:30.583Z,8212.00
2019-04-26T11:09:30.649Z,8440.00
2019-04-26T11:10:30.480Z,8512.00
2019-04-26T11:11:30.460Z,8556.00
2019-04-26T11:12:30.448Z,8612.00
2019-04-26T11:13:30.417Z,8672.00
2019-04-26T11:14:30.397Z,8796.00
2019-04-26T11:15:32.612Z,8828.00
2019-04-26T11:16:30.359Z,8872.00
2019-04-26T11:17:30.333Z,8712.00
2019-04-26T11:18:30.310Z,8384.00
2019-04-26T11:19:32.024Z,8184.00
2019-04-26T11:20:30.296Z,8024.00
2019-04-26T11:21:30.251Z,7824.00
2019-04-26T11:22:33.448Z,7760.00
2019-04-26T11:23:30.221Z,7804.00
2019-04-26T11:24:30.186Z,7816.00
2019-04-26T11:25:30.234Z,7716.00
2019-04-26T11:26:31.096Z,7596.00
2019-04-26T11:27:30.128Z,7464.00
2019-04-26T11:28:30.146Z,7288.00
2019-04-26T11:29:30.212Z,7164.00
2019-04-26T11:30:30.083Z,7008.00
2019-04-26T11:31:30.121Z,6660.00
2019-04-26T11:32:33.140Z,6468.00
2019-04-26T11:33:29.998Z,6376.00
2019-04-26T11:34:29.991Z,6552.00
2019-04-26T11:35:33.202Z,6800.00
2019-04-26T11:36:29.993Z,7128.00
2019-04-26T11:37:29.922Z,7480.00
2019-04-26T11:38:31.198Z,7968.00
2019-04-26T11:39:29.893Z,8200.00
2019-04-26T11:40:29.888Z,8288.00
2019-04-26T11:41:29.879Z,8280.00
2019-04-26T11:42:29.875Z,8212.00
2019-04-26T11:43:29.789Z,7980.00
2019-04-26T11:44:29.886Z,7760.00
2019-04-26T11:45:29.849Z,7576.00
2019-04-26T11:46:30.359Z,7436.00
2019-04-26T11:47:29.767Z,7376.00
2019-04-26T11:48:30.649Z,7244.00
2019-04-26T11:49:29.719Z,7164.00
2019-04-26T11:50:29.642Z,7312.00
2019-04-26T11:51:29.662Z,7460.00
2019-04-26T11:52:32.247Z,7500.00
2019-04-26T11:53:29.654Z,7744.00
2019-04-26T11:54:29.559Z,7400.00
2019-04-26T11:55:30.255Z,7580.00
2019-04-26T11:56:29.519Z,7736.00
2019-04-26T11:57:29.501Z,7620.00
2019-04-26T11:58:29.529Z,7528.00
2019-04-26T11:59:30.664Z,7444.00
2019-04-26T12:00:29.444Z,7520.00
2019-04-26T12:01:29.423Z,7936.00
2019-04-26T12:02:29.396Z,8456.00
2019-04-26T12:03:29.419Z,8692.00
2019-04-26T12:04:29.352Z,8776.00
2019-04-26T12:05:29.332Z,9888.00
2019-04-26T12:06:29.308Z,10948.00
2019-04-26T12:07:29.289Z,10888.00
2019-04-26T12:08:29.293Z,10712.00
2019-04-26T12:09:29.251Z,10720.00
2019-04-26T12:10:29.227Z,10604.00
2019-04-26T12:11:36.156Z,10504.00
2019-04-26T12:12:29.183Z,10372.00
2019-04-26T12:13:29.187Z,10292.00
2019-04-26T12:14:29.456Z,9952.00
2019-04-26T12:15:30.412Z,9508.00
2019-04-26T12:16:29.129Z,9600.00
2019-04-26T12:17:31.206Z,9488.00
2019-04-26T12:18:29.083Z,8932.00
2019-04-26T12:19:29.067Z,8696.00